North Carrollton, Mississippi
Current Conditions -  °F | °C
As of 4:53 PM on Thursday 27 Nov 2014 (Local Time) from KGWO Reporting Station
Clear Clear  
Wind Chill: 43°   Ceiling: Unl
Heat Index: 43°   Visibility: 10mi
Dew Point: 29°   Wind: 0mph
Humidity: 58%   Direction: NA
Pressure: 30.48"   Gusts: NA
Location:  33.52°N, 89.92°W
Report Text: KGWO 272253Z AUTO 00000KT 10SM CLR 06/M02 A3048 RMK AO2 SLP324 T00611017 TSNO
Loading
Personal Weather Stations






























Interactive Weather Map New forecast layout! Learn more

10-Day Weather Forecast

Advertisements
Track Severe Weather on mobile